Date,TemperatureHighF,TemperatureAvgF,TemperatureLowF,DewpointHighF,DewpointAvgF,DewpointLowF,HumidityHigh,HumidityAvg,HumidityLow,PressureMaxIn,PressureMinIn,WindSpeedMaxMPH,WindSpeedAvgMPH,GustSpeedMaxMPH,PrecipitationSumIn
2013-1-1,44,40,34,32,30,26,81,68,62,0.00,40.00,6,2,14,0.00
2013-1-2,38,32,24,30,21,15,81,66,46,0.00,40.00,7,2,14,0.00
2013-1-3,39,28,21,25,20,17,93,73,47,0.00,40.00,4,1,12,0.00
2013-1-4,44,34,23,29,24,22,99,72,48,0.00,40.00,10,-5,22,0.00
2013-1-5,46,36,30,33,26,23,87,68,48,0.00,40.00,6,2,16,0.00
2013-1-6,54,41,29,42,32,27,99,73,37,0.00,40.00,7,-6,15,0.00
2013-1-7,49,39,27,34,30,26,99,71,50,0.00,40.00,7,2,18,0.00
2013-1-8,54,37,26,36,31,26,99,82,45,0.00,40.00,6,1,15,0.00
2013-1-9,51,39,29,46,37,29,99,93,68,0.00,40.00,5,1,13,0.00
2013-1-10,54,44,33,38,32,29,99,67,41,0.00,40.00,4,-6,12,0.00
2013-1-11,46,42,35,44,39,33,99,91,79,0.00,40.00,4,1,9,0.07
2013-1-12,58,47,42,50,45,42,99,95,75,0.00,40.00,5,1,9,0.00
2013-1-13,49,46,40,49,45,40,99,99,99,0.00,40.00,4,1,7,0.00
2013-1-14,57,50,40,56,47,36,99,89,63,0.00,40.00,5,1,11,0.12
2013-1-15,41,39,35,41,39,35,99,98,85,0.00,40.00,6,2,12,0.37
2013-1-16,40,37,34,40,37,34,99,99,99,0.00,40.00,6,2,14,0.34
2013-1-17,46,41,36,41,35,30,99,80,61,0.00,40.00,5,1,12,0.00
2013-1-18,38,33,25,35,21,11,98,63,37,0.00,40.00,9,3,19,0.00
2013-1-19,54,40,25,31,27,18,97,62,39,0.00,40.00,9,3,17,0.00
2013-1-20,61,44,31,36,27,15,97,55,30,0.00,40.00,12,3,29,0.00
2013-1-21,41,33,29,32,22,16,90,64,53,0.00,40.00,11,2,24,0.01
2013-1-22,29,21,14,17,5,1,63,52,41,0.00,40.00,13,5,27,0.00
2013-1-23,26,20,11,9,6,3,76,56,43,0.00,40.00,9,3,21,0.00
2013-1-24,26,19,12,19,12,3,99,78,41,0.00,40.00,8,-15,14,0.45
2013-1-25,24,18,11,20,12,6,99,80,51,0.00,40.00,6,1,10,0.92
2013-1-26,36,25,19,26,21,19,99,85,53,0.00,40.00,4,1,13,0.00
2013-1-27,38,27,18,29,21,18,99,80,45,0.00,40.00,6,1,9,0.00
2013-1-28,39,34,27,39,34,27,99,98,92,0.00,40.00,6,1,15,0.05
2013-1-29,64,46,33,53,44,33,99,91,65,0.00,40.00,5,1,11,0.00
2013-1-30,71,56,42,66,54,42,99,96,83,0.00,40.00,12,4,29,1.58
2013-1-31,56,40,27,56,22,11,99,50,40,0.00,40.00,13,6,35,0.00
2013-2-1,32,26,19,27,14,5,99,60,41,0.00,40.00,12,4,29,0.00
2013-2-2,30,23,14,27,16,5,99,74,45,0.00,40.00,7,1,14,0.46
2013-2-3,35,28,20,31,27,20,99,94,72,0.00,40.00,9,1,21,0.30
2013-2-4,38,30,21,21,17,13,73,59,43,0.00,40.00,9,-4,21,0.00
2013-2-5,39,35,30,33,30,21,99,83,61,0.00,40.00,6,-12,11,0.00
2013-2-6,44,35,28,36,28,23,99,78,52,0.00,40.00,10,2,20,0.00
2013-2-7,39,33,25,32,26,22,97,78,57,0.00,40.00,8,3,15,0.00
2013-2-8,42,37,34,42,36,25,99,94,73,0.00,40.00,14,4,31,0.12
2013-2-9,41,32,25,26,19,15,77,60,41,0.00,40.00,14,6,33,0.00
2013-2-10,45,33,19,32,19,15,95,60,33,0.00,40.00,6,2,12,0.00
2013-2-11,53,44,36,53,44,32,99,98,81,0.00,40.00,7,2,16,0.37
2013-2-12,56,46,34,44,32,27,99,61,37,0.00,40.00,9,-4,25,0.00
2013-2-13,45,36,30,40,33,29,99,87,64,0.00,40.00,6,-11,14,1.30
2013-2-14,50,38,29,40,31,25,99,81,39,0.00,40.00,6,1,13,0.00
2013-2-15,61,43,29,40,35,29,99,78,35,0.00,40.00,9,2,17,0.10
2013-2-16,38,35,32,37,32,20,99,89,62,0.00,40.00,6,2,12,0.03
2013-2-17,34,28,23,20,15,9,75,58,42,0.00,40.00,12,6,29,0.00
2013-2-18,42,30,18,22,12,7,77,48,29,0.00,40.00,10,2,22,0.00
2013-2-19,45,37,26,45,33,23,99,87,54,0.00,40.00,9,3,24,0.01
2013-2-20,38,32,24,23,17,10,64,56,47,0.00,40.00,11,5,24,0.00
2013-2-21,40,30,22,20,16,12,71,57,43,0.00,40.00,10,4,22,0.00
2013-2-22,35,32,28,33,26,18,99,79,65,0.00,40.00,6,2,14,0.03
2013-2-23,46,40,32,46,39,32,99,99,99,0.00,40.00,5,-6,11,0.00
2013-2-24,53,42,31,47,33,22,99,73,39,0.00,40.00,12,4,25,0.00
2013-2-25,49,37,29,29,26,22,91,65,43,0.00,40.00,7,3,16,0.00
2013-2-26,43,37,28,42,36,27,99,96,79,0.00,40.00,15,6,30,0.23
2013-2-27,58,47,40,50,40,34,99,79,50,0.00,40.00,12,3,19,0.00
2013-2-28,50,43,38,41,34,26,99,72,43,0.00,40.00,9,3,18,0.00
2013-3-1,48,41,33,38,32,26,89,72,60,0.00,40.00,9,4,17,0.00
2013-3-2,42,34,30,30,27,23,91,75,60,0.00,40.00,9,4,19,0.00
2013-3-3,42,34,29,28,24,22,83,69,54,0.00,40.00,10,5,21,0.00
2013-3-4,44,35,27,25,22,18,72,60,47,0.00,40.00,11,5,24,0.00
2013-3-5,50,38,25,34,26,21,86,62,34,0.00,40.00,8,3,19,0.00
2013-3-6,39,36,33,38,35,32,99,96,78,0.00,40.00,14,8,28,3.07
2013-3-7,52,42,35,34,29,24,87,62,40,0.00,40.00,9,4,24,0.00
2013-3-8,51,42,33,33,29,26,84,62,45,0.00,40.00,12,5,26,0.00
2013-3-9,64,46,35,30,26,23,66,48,25,0.00,40.00,9,2,15,0.00
2013-3-10,63,47,31,41,29,20,99,57,24,0.00,40.00,7,2,16,0.00
2013-3-11,58,51,44,53,48,42,99,89,66,0.00,40.00,7,3,22,0.00
2013-3-12,60,52,40,57,48,33,99,87,60,0.00,40.00,9,-11,20,0.58
2013-3-13,51,40,29,37,28,21,99,66,34,0.00,40.00,11,-11,24,0.00
2013-3-14,46,37,30,23,20,16,66,52,35,0.00,40.00,13,-2,29,0.00
2013-3-15,57,41,25,36,26,18,94,60,34,0.00,40.00,12,-6,21,0.00
2013-3-16,52,45,38,42,39,35,98,81,68,0.00,40.00,10,4,18,0.00
2013-3-17,42,38,33,38,32,25,99,80,59,0.00,40.00,7,-11,15,0.00
2013-3-18,39,37,36,38,30,22,99,77,55,0.00,40.00,9,4,19,0.17
2013-3-19,61,46,37,47,33,15,99,69,26,0.00,40.00,12,-4,24,0.00
2013-3-20,53,42,27,25,22,19,81,47,28,0.00,40.00,8,3,21,0.00
2013-3-21,42,35,27,31,20,11,91,55,41,0.00,40.00,9,4,20,0.00
2013-3-22,48,35,25,25,21,13,80,57,41,0.00,40.00,11,-11,22,0.00
2013-3-23,54,39,24,30,26,22,99,64,37,0.00,40.00,9,3,19,0.00
2013-3-24,44,38,28,36,28,23,99,69,52,0.00,40.00,9,2,16,0.00
2013-3-25,38,35,33,37,35,32,99,99,99,0.00,40.00,5,2,10,6.44
2013-3-26,53,42,31,42,32,25,99,74,36,0.00,40.00,7,4,19,0.00
2013-3-27,53,44,37,34,31,27,79,61,46,0.00,40.00,14,-9,26,0.00
2013-3-28,51,42,33,37,32,28,96,69,45,0.00,40.00,7,4,17,0.00
2013-3-29,58,48,40,36,32,29,74,57,39,0.00,40.00,7,-12,15,0.00
2013-3-30,62,48,34,41,32,22,99,59,28,0.00,40.00,7,2,14,0.00
2013-3-31,56,47,37,52,43,-100,99,91,71,0.00,40.00,6,1,11,0.07
2013-4-1,67,50,37,50,38,19,99,68,39,0.00,40.00,12,4,25,0.00
2013-4-2,51,39,27,26,20,15,77,48,32,0.00,40.00,11,3,23,0.00
2013-4-3,53,39,26,25,20,14,77,50,29,0.00,40.00,11,3,27,0.00
2013-4-4,52,39,24,33,23,19,89,56,32,0.00,40.00,6,2,14,0.01
2013-4-5,67,49,38,46,33,20,99,63,24,0.00,40.00,7,-75,20,0.05
2013-4-6,57,46,34,28,23,18,63,40,29,0.00,40.00,9,3,17,0.00
2013-4-7,72,53,39,48,40,29,93,65,36,0.00,40.00,12,4,22,0.00
2013-4-8,82,65,48,57,51,46,93,65,36,0.00,40.00,7,-49,16,0.00
2013-4-9,88,73,57,62,58,55,96,64,39,0.00,40.00,9,1,19,0.00
2013-4-10,93,76,59,65,61,58,96,63,38,0.00,40.00,9,-14,19,0.00
2013-4-11,83,68,55,65,61,54,99,82,50,0.00,40.00,12,-19,26,0.00
2013-4-12,64,55,51,63,55,50,99,99,97,0.00,40.00,13,-2,21,0.35
2013-4-13,70,56,41,53,43,39,99,70,35,0.00,40.00,7,2,18,0.00
2013-4-14,69,57,42,48,42,37,99,63,33,0.00,40.00,8,2,17,0.00
2013-4-15,59,56,53,54,51,44,99,85,64,0.00,40.00,8,4,16,0.00